sensor_id;sensor_type;location;lat;lon;timestamp;temperature;humidity
25200;DHT22;33094;48.782;9.162;2022-08-19T00:02:04;21.70;97.00
25200;DHT22;33094;48.782;9.162;2022-08-19T00:04:31;21.60;97.10
25200;DHT22;33094;48.782;9.162;2022-08-19T00:06:58;21.60;97.10
25200;DHT22;33094;48.782;9.162;2022-08-19T00:09:24;21.50;97.20
25200;DHT22;33094;48.782;9.162;2022-08-19T00:11:50;21.60;97.20
25200;DHT22;33094;48.782;9.162;2022-08-19T00:14:16;21.50;97.20
25200;DHT22;33094;48.782;9.162;2022-08-19T00:16:43;21.50;97.30
25200;DHT22;33094;48.782;9.162;2022-08-19T00:19:09;21.40;97.40
25200;DHT22;33094;48.782;9.162;2022-08-19T00:21:35;21.60;97.30
25200;DHT22;33094;48.782;9.162;2022-08-19T00:24:08;21.60;97.30
25200;DHT22;33094;48.782;9.162;2022-08-19T00:26:34;21.40;97.40
25200;DHT22;33094;48.782;9.162;2022-08-19T00:28:59;21.50;97.50
25200;DHT22;33094;48.782;9.162;2022-08-19T00:31:26;21.50;97.30
25200;DHT22;33094;48.782;9.162;2022-08-19T00:33:53;21.50;97.40
25200;DHT22;33094;48.782;9.162;2022-08-19T00:36:18;21.50;97.40
25200;DHT22;33094;48.782;9.162;2022-08-19T00:38:44;21.40;97.40
25200;DHT22;33094;48.782;9.162;2022-08-19T00:41:12;21.30;97.60
25200;DHT22;33094;48.782;9.162;2022-08-19T00:43:38;21.20;97.70
25200;DHT22;33094;48.782;9.162;2022-08-19T00:46:05;21.20;97.70
25200;DHT22;33094;48.782;9.162;2022-08-19T00:48:31;21.30;97.80
25200;DHT22;33094;48.782;9.162;2022-08-19T00:50:57;22.20;97.90
25200;DHT22;33094;48.782;9.162;2022-08-19T00:53:23;21.30;97.80
25200;DHT22;33094;48.782;9.162;2022-08-19T00:55:51;21.40;97.60
25200;DHT22;33094;48.782;9.162;2022-08-19T00:58:19;21.40;97.60
25200;DHT22;33094;48.782;9.162;2022-08-19T01:00:46;21.40;97.60
25200;DHT22;33094;48.782;9.162;2022-08-19T01:03:13;21.40;97.80
25200;DHT22;33094;48.782;9.162;2022-08-19T01:05:39;21.20;97.80
25200;DHT22;33094;48.782;9.162;2022-08-19T01:08:06;21.30;97.80
25200;DHT22;33094;48.782;9.162;2022-08-19T01:10:33;21.20;97.80
25200;DHT22;33094;48.782;9.162;2022-08-19T01:13:01;21.20;97.90
25200;DHT22;33094;48.782;9.162;2022-08-19T01:15:32;21.10;97.90
25200;DHT22;33094;48.782;9.162;2022-08-19T01:17:59;21.20;97.90
25200;DHT22;33094;48.782;9.162;2022-08-19T01:20:26;21.30;97.80
25200;DHT22;33094;48.782;9.162;2022-08-19T01:22:53;21.20;97.90
25200;DHT22;33094;48.782;9.162;2022-08-19T01:25:20;21.20;97.80
25200;DHT22;33094;48.782;9.162;2022-08-19T01:27:48;21.10;97.90
25200;DHT22;33094;48.782;9.162;2022-08-19T01:30:33;21.20;97.90
25200;DHT22;33094;48.782;9.162;2022-08-19T01:32:59;21.30;97.80
25200;DHT22;33094;48.782;9.162;2022-08-19T01:35:26;21.30;97.90
25200;DHT22;33094;48.782;9.162;2022-08-19T01:37:56;21.20;97.90
25200;DHT22;33094;48.782;9.162;2022-08-19T01:40:22;22.60;98.40
25200;DHT22;33094;48.782;9.162;2022-08-19T01:42:49;21.30;97.90
25200;DHT22;33094;48.782;9.162;2022-08-19T01:45:15;21.20;98.20
25200;DHT22;33094;48.782;9.162;2022-08-19T01:47:40;21.20;98.20
25200;DHT22;33094;48.782;9.162;2022-08-19T01:50:07;21.10;98.10
25200;DHT22;33094;48.782;9.162;2022-08-19T01:52:37;21.20;98.00
25200;DHT22;33094;48.782;9.162;2022-08-19T01:55:03;21.10;98.10
25200;DHT22;33094;48.782;9.162;2022-08-19T01:57:29;21.10;98.20
25200;DHT22;33094;48.782;9.162;2022-08-19T01:59:55;21.10;98.20
25200;DHT22;33094;48.782;9.162;2022-08-19T02:02:20;21.00;98.30
25200;DHT22;33094;48.782;9.162;2022-08-19T02:04:46;21.00;98.40
25200;DHT22;33094;48.782;9.162;2022-08-19T02:07:11;22.60;98.70
25200;DHT22;33094;48.782;9.162;2022-08-19T02:09:37;21.10;98.40
25200;DHT22;33094;48.782;9.162;2022-08-19T02:12:04;21.10;98.40
25200;DHT22;33094;48.782;9.162;2022-08-19T02:14:29;21.10;98.40
25200;DHT22;33094;48.782;9.162;2022-08-19T02:16:55;20.90;98.60
25200;DHT22;33094;48.782;9.162;2022-08-19T02:19:21;20.90;98.60
25200;DHT22;33094;48.782;9.162;2022-08-19T02:21:46;20.90;98.70
25200;DHT22;33094;48.782;9.162;2022-08-19T02:24:12;23.70;99.40
25200;DHT22;33094;48.782;9.162;2022-08-19T02:26:37;21.00;98.70
25200;DHT22;33094;48.782;9.162;2022-08-19T02:29:03;21.00;98.80
25200;DHT22;33094;48.782;9.162;2022-08-19T02:31:29;20.90;98.80
25200;DHT22;33094;48.782;9.162;2022-08-19T02:33:55;20.90;98.90
25200;DHT22;33094;48.782;9.162;2022-08-19T02:36:20;20.90;98.90
25200;DHT22;33094;48.782;9.162;2022-08-19T02:38:46;22.40;99.30
25200;DHT22;33094;48.782;9.162;2022-08-19T02:41:13;20.90;99.00
25200;DHT22;33094;48.782;9.162;2022-08-19T02:43:39;20.90;98.90
25200;DHT22;33094;48.782;9.162;2022-08-19T02:46:18;20.90;98.90
25200;DHT22;33094;48.782;9.162;2022-08-19T02:48:49;24.70;99.90
25200;DHT22;33094;48.782;9.162;2022-08-19T02:51:20;20.70;99.10
25200;DHT22;33094;48.782;9.162;2022-08-19T02:53:46;20.70;99.30
25200;DHT22;33094;48.782;9.162;2022-08-19T02:56:12;20.70;99.40
25200;DHT22;33094;48.782;9.162;2022-08-19T02:58:37;22.70;99.70
25200;DHT22;33094;48.782;9.162;2022-08-19T03:01:03;20.80;99.10
25200;DHT22;33094;48.782;9.162;2022-08-19T03:03:28;20.70;99.40
25200;DHT22;33094;48.782;9.162;2022-08-19T03:06:11;20.70;99.50
25200;DHT22;33094;48.782;9.162;2022-08-19T03:08:39;20.60;99.70
25200;DHT22;33094;48.782;9.162;2022-08-19T03:11:04;22.50;99.90
25200;DHT22;33094;48.782;9.162;2022-08-19T03:13:30;20.60;99.90
25200;DHT22;33094;48.782;9.162;2022-08-19T03:15:56;20.50;99.90
25200;DHT22;33094;48.782;9.162;2022-08-19T03:18:22;20.50;99.90
25200;DHT22;33094;48.782;9.162;2022-08-19T03:20:48;20.40;99.90
25200;DHT22;33094;48.782;9.162;2022-08-19T03:23:14;20.40;99.90
25200;DHT22;33094;48.782;9.162;2022-08-19T03:25:41;20.40;99.90
25200;DHT22;33094;48.782;9.162;2022-08-19T03:28:09;20.40;99.90
25200;DHT22;33094;48.782;9.162;2022-08-19T03:30:35;20.40;99.90
25200;DHT22;33094;48.782;9.162;2022-08-19T03:33:00;20.10;99.90
25200;DHT22;33094;48.782;9.162;2022-08-19T03:35:27;20.30;99.90
25200;DHT22;33094;48.782;9.162;2022-08-19T03:37:52;20.50;99.90
25200;DHT22;33094;48.782;9.162;2022-08-19T03:40:18;20.40;99.90
25200;DHT22;33094;48.782;9.162;2022-08-19T03:42:44;20.30;99.90
25200;DHT22;33094;48.782;9.162;2022-08-19T03:45:11;20.20;99.90
25200;DHT22;33094;48.782;9.162;2022-08-19T03:47:36;20.30;99.90
25200;DHT22;33094;48.782;9.162;2022-08-19T03:50:03;20.20;99.90
25200;DHT22;33094;48.782;9.162;2022-08-19T03:52:29;20.20;99.90
25200;DHT22;33094;48.782;9.162;2022-08-19T03:54:55;20.10;99.90
25200;DHT22;33094;48.782;9.162;2022-08-19T03:57:20;20.20;99.90
25200;DHT22;33094;48.782;9.162;2022-08-19T03:59:46;20.30;99.90
25200;DHT22;33094;48.782;9.162;2022-08-19T04:02:11;20.70;99.90
25200;DHT22;33094;48.782;9.162;2022-08-19T04:04:38;20.20;99.90
25200;DHT22;33094;48.782;9.162;2022-08-19T04:07:04;21.20;99.90
25200;DHT22;33094;48.782;9.162;2022-08-19T04:09:31;20.30;99.90
25200;DHT22;33094;48.782;9.162;2022-08-19T04:11:58;20.30;99.90
25200;DHT22;33094;48.782;9.162;2022-08-19T04:14:26;20.20;99.90
25200;DHT22;33094;48.782;9.162;2022-08-19T04:16:54;20.20;99.90
25200;DHT22;33094;48.782;9.162;2022-08-19T04:19:20;20.30;99.90
25200;DHT22;33094;48.782;9.162;2022-08-19T04:21:48;20.30;99.90
25200;DHT22;33094;48.782;9.162;2022-08-19T04:24:15;20.10;99.90
25200;DHT22;33094;48.782;9.162;2022-08-19T04:26:40;20.10;99.90
25200;DHT22;33094;48.782;9.162;2022-08-19T04:29:08;20.10;99.90
25200;DHT22;33094;48.782;9.162;2022-08-19T04:31:33;20.10;99.90
25200;DHT22;33094;48.782;9.162;2022-08-19T04:34:02;20.10;99.90
25200;DHT22;33094;48.782;9.162;2022-08-19T04:36:30;20.10;99.90
25200;DHT22;33094;48.782;9.162;2022-08-19T04:38:56;20.20;99.90
25200;DHT22;33094;48.782;9.162;2022-08-19T04:41:22;20.20;99.90
25200;DHT22;33094;48.782;9.162;2022-08-19T04:44:06;20.20;99.90
25200;DHT22;33094;48.782;9.162;2022-08-19T04:46:32;20.10;99.90
25200;DHT22;33094;48.782;9.162;2022-08-19T04:48:58;20.30;99.90
25200;DHT22;33094;48.782;9.162;2022-08-19T04:51:24;20.20;99.90
25200;DHT22;33094;48.782;9.162;2022-08-19T04:53:49;22.60;99.90
25200;DHT22;33094;48.782;9.162;2022-08-19T04:56:16;20.90;99.90
25200;DHT22;33094;48.782;9.162;2022-08-19T04:58:43;20.30;99.90
25200;DHT22;33094;48.782;9.162;2022-08-19T05:01:09;20.40;99.90
25200;DHT22;33094;48.782;9.162;2022-08-19T05:03:36;20.50;99.90
25200;DHT22;33094;48.782;9.162;2022-08-19T05:06:06;20.30;99.90
25200;DHT22;33094;48.782;9.162;2022-08-19T05:08:33;20.80;99.90
25200;DHT22;33094;48.782;9.162;2022-08-19T05:10:59;20.20;99.90
25200;DHT22;33094;48.782;9.162;2022-08-19T05:13:25;20.20;99.90
25200;DHT22;33094;48.782;9.162;2022-08-19T05:15:55;20.30;99.90
25200;DHT22;33094;48.782;9.162;2022-08-19T05:18:21;20.20;99.90
25200;DHT22;33094;48.782;9.162;2022-08-19T05:21:09;20.20;99.90
25200;DHT22;33094;48.782;9.162;2022-08-19T05:23:54;20.40;99.90
25200;DHT22;33094;48.782;9.162;2022-08-19T05:26:19;20.40;99.90
25200;DHT22;33094;48.782;9.162;2022-08-19T05:28:45;22.70;99.90
25200;DHT22;33094;48.782;9.162;2022-08-19T05:31:10;20.20;99.90
25200;DHT22;33094;48.782;9.162;2022-08-19T05:33:36;20.20;99.90
25200;DHT22;33094;48.782;9.162;2022-08-19T05:36:02;20.20;99.90
25200;DHT22;33094;48.782;9.162;2022-08-19T05:38:28;20.30;99.90
25200;DHT22;33094;48.782;9.162;2022-08-19T05:40:55;20.50;99.90
25200;DHT22;33094;48.782;9.162;2022-08-19T05:43:20;20.30;99.90
25200;DHT22;33094;48.782;9.162;2022-08-19T05:45:46;20.60;99.90
25200;DHT22;33094;48.782;9.162;2022-08-19T05:48:12;24.60;99.90
25200;DHT22;33094;48.782;9.162;2022-08-19T05:50:39;20.50;99.90
25200;DHT22;33094;48.782;9.162;2022-08-19T05:53:05;20.60;99.90
25200;DHT22;33094;48.782;9.162;2022-08-19T05:55:31;20.60;99.90
25200;DHT22;33094;48.782;9.162;2022-08-19T05:58:07;20.50;99.90
25200;DHT22;33094;48.782;9.162;2022-08-19T06:00:34;20.50;99.90
25200;DHT22;33094;48.782;9.162;2022-08-19T06:02:59;20.40;99.90
25200;DHT22;33094;48.782;9.162;2022-08-19T06:05:31;20.60;99.90
25200;DHT22;33094;48.782;9.162;2022-08-19T06:07:57;20.30;99.90
25200;DHT22;33094;48.782;9.162;2022-08-19T06:10:24;20.40;99.90
25200;DHT22;33094;48.782;9.162;2022-08-19T06:12:51;20.50;99.90
25200;DHT22;33094;48.782;9.162;2022-08-19T06:15:17;20.30;99.90
25200;DHT22;33094;48.782;9.162;2022-08-19T06:17:42;20.20;99.90
25200;DHT22;33094;48.782;9.162;2022-08-19T06:20:11;20.40;99.90
25200;DHT22;33094;48.782;9.162;2022-08-19T06:22:42;20.40;99.90
25200;DHT22;33094;48.782;9.162;2022-08-19T06:25:08;20.40;99.90
25200;DHT22;33094;48.782;9.162;2022-08-19T06:27:34;20.50;99.90
25200;DHT22;33094;48.782;9.162;2022-08-19T06:30:00;20.40;99.90
25200;DHT22;33094;48.782;9.162;2022-08-19T06:32:26;20.30;99.90
25200;DHT22;33094;48.782;9.162;2022-08-19T06:34:51;20.30;99.90
25200;DHT22;33094;48.782;9.162;2022-08-19T06:37:17;20.50;99.90
25200;DHT22;33094;48.782;9.162;2022-08-19T06:39:43;20.30;99.90
25200;DHT22;33094;48.782;9.162;2022-08-19T06:42:10;20.00;99.90
25200;DHT22;33094;48.782;9.162;2022-08-19T06:44:39;20.00;99.90
25200;DHT22;33094;48.782;9.162;2022-08-19T06:47:06;20.10;99.90
25200;DHT22;33094;48.782;9.162;2022-08-19T06:49:32;20.10;99.90
25200;DHT22;33094;48.782;9.162;2022-08-19T06:51:58;22.40;99.90
25200;DHT22;33094;48.782;9.162;2022-08-19T06:54:25;20.10;99.90
25200;DHT22;33094;48.782;9.162;2022-08-19T06:56:51;20.00;99.90
25200;DHT22;33094;48.782;9.162;2022-08-19T06:59:18;20.20;99.90
25200;DHT22;33094;48.782;9.162;2022-08-19T07:01:45;20.80;99.90
25200;DHT22;33094;48.782;9.162;2022-08-19T07:04:12;20.10;99.90
25200;DHT22;33094;48.782;9.162;2022-08-19T07:06:38;20.20;99.90
25200;DHT22;33094;48.782;9.162;2022-08-19T07:09:04;20.10;99.90
25200;DHT22;33094;48.782;9.162;2022-08-19T07:11:30;20.10;99.90
25200;DHT22;33094;48.782;9.162;2022-08-19T07:13:58;19.90;99.90
25200;DHT22;33094;48.782;9.162;2022-08-19T07:16:23;19.90;99.90
25200;DHT22;33094;48.782;9.162;2022-08-19T07:18:49;20.20;99.90
25200;DHT22;33094;48.782;9.162;2022-08-19T07:21:17;20.20;99.90
25200;DHT22;33094;48.782;9.162;2022-08-19T07:23:43;20.20;99.90
25200;DHT22;33094;48.782;9.162;2022-08-19T07:26:15;20.20;99.90
25200;DHT22;33094;48.782;9.162;2022-08-19T07:28:41;20.20;99.90
25200;DHT22;33094;48.782;9.162;2022-08-19T07:31:12;20.50;99.90
25200;DHT22;33094;48.782;9.162;2022-08-19T07:33:38;20.50;99.90
25200;DHT22;33094;48.782;9.162;2022-08-19T07:36:04;20.30;99.90
25200;DHT22;33094;48.782;9.162;2022-08-19T07:38:32;20.30;99.90
25200;DHT22;33094;48.782;9.162;2022-08-19T07:40:58;20.30;99.90
25200;DHT22;33094;48.782;9.162;2022-08-19T07:43:23;20.50;99.90
25200;DHT22;33094;48.782;9.162;2022-08-19T07:45:51;20.50;99.90
25200;DHT22;33094;48.782;9.162;2022-08-19T07:48:18;24.90;99.90
25200;DHT22;33094;48.782;9.162;2022-08-19T07:50:43;22.80;99.90
25200;DHT22;33094;48.782;9.162;2022-08-19T07:53:09;20.50;99.90
25200;DHT22;33094;48.782;9.162;2022-08-19T07:55:35;20.30;99.90
25200;DHT22;33094;48.782;9.162;2022-08-19T07:58:00;20.40;99.90
25200;DHT22;33094;48.782;9.162;2022-08-19T08:00:26;20.30;99.90
25200;DHT22;33094;48.782;9.162;2022-08-19T08:02:52;20.40;99.90
25200;DHT22;33094;48.782;9.162;2022-08-19T08:05:18;20.40;99.90
25200;DHT22;33094;48.782;9.162;2022-08-19T08:08:02;20.40;99.90
25200;DHT22;33094;48.782;9.162;2022-08-19T08:10:46;20.40;99.90
25200;DHT22;33094;48.782;9.162;2022-08-19T08:13:11;20.40;99.90
25200;DHT22;33094;48.782;9.162;2022-08-19T08:15:38;20.40;99.90
25200;DHT22;33094;48.782;9.162;2022-08-19T08:18:04;20.10;99.90
25200;DHT22;33094;48.782;9.162;2022-08-19T08:20:29;20.00;99.90
25200;DHT22;33094;48.782;9.162;2022-08-19T08:22:55;20.00;99.90
25200;DHT22;33094;48.782;9.162;2022-08-19T08:25:39;19.60;99.90
25200;DHT22;33094;48.782;9.162;2022-08-19T08:28:05;17.10;99.90
25200;DHT22;33094;48.782;9.162;2022-08-19T08:30:32;20.20;99.90
25200;DHT22;33094;48.782;9.162;2022-08-19T08:33:00;20.00;99.90
25200;DHT22;33094;48.782;9.162;2022-08-19T08:35:25;20.00;99.90
25200;DHT22;33094;48.782;9.162;2022-08-19T08:37:52;20.20;99.90
25200;DHT22;33094;48.782;9.162;2022-08-19T08:42:46;20.10;99.90
25200;DHT22;33094;48.782;9.162;2022-08-19T08:45:16;20.20;99.90
25200;DHT22;33094;48.782;9.162;2022-08-19T08:47:44;19.90;99.90
25200;DHT22;33094;48.782;9.162;2022-08-19T08:50:13;20.20;99.90
25200;DHT22;33094;48.782;9.162;2022-08-19T08:52:43;20.30;99.90
25200;DHT22;33094;48.782;9.162;2022-08-19T08:55:15;20.50;99.90
25200;DHT22;33094;48.782;9.162;2022-08-19T09:00:31;20.60;99.90
25200;DHT22;33094;48.782;9.162;2022-08-19T09:02:58;20.70;99.90
25200;DHT22;33094;48.782;9.162;2022-08-19T09:05:25;20.50;99.90
25200;DHT22;33094;48.782;9.162;2022-08-19T09:08:17;20.60;99.90
25200;DHT22;33094;48.782;9.162;2022-08-19T09:10:51;20.60;99.90
25200;DHT22;33094;48.782;9.162;2022-08-19T09:13:23;20.80;99.90
25200;DHT22;33094;48.782;9.162;2022-08-19T09:16:00;20.80;99.90
25200;DHT22;33094;48.782;9.162;2022-08-19T09:18:38;20.80;99.90
25200;DHT22;33094;48.782;9.162;2022-08-19T09:21:03;24.10;99.90
25200;DHT22;33094;48.782;9.162;2022-08-19T09:23:29;20.70;99.90
25200;DHT22;33094;48.782;9.162;2022-08-19T09:25:54;20.70;99.90
25200;DHT22;33094;48.782;9.162;2022-08-19T09:28:20;20.90;99.90
25200;DHT22;33094;48.782;9.162;2022-08-19T09:30:45;20.90;99.90
25200;DHT22;33094;48.782;9.162;2022-08-19T09:33:11;20.90;99.90
25200;DHT22;33094;48.782;9.162;2022-08-19T09:35:37;20.90;99.90
25200;DHT22;33094;48.782;9.162;2022-08-19T09:38:02;20.90;99.90
25200;DHT22;33094;48.782;9.162;2022-08-19T09:40:28;20.90;99.90
25200;DHT22;33094;48.782;9.162;2022-08-19T09:42:54;21.10;99.90
25200;DHT22;33094;48.782;9.162;2022-08-19T09:45:20;18.40;99.90
25200;DHT22;33094;48.782;9.162;2022-08-19T09:47:47;21.10;99.90
25200;DHT22;33094;48.782;9.162;2022-08-19T09:50:13;21.20;99.90
25200;DHT22;33094;48.782;9.162;2022-08-19T09:52:39;21.30;99.90
25200;DHT22;33094;48.782;9.162;2022-08-19T09:55:05;21.30;99.90
25200;DHT22;33094;48.782;9.162;2022-08-19T09:57:31;21.30;99.90
25200;DHT22;33094;48.782;9.162;2022-08-19T09:59:56;21.40;99.90
25200;DHT22;33094;48.782;9.162;2022-08-19T10:02:22;19.50;99.90
25200;DHT22;33094;48.782;9.162;2022-08-19T10:04:48;21.30;99.90
25200;DHT22;33094;48.782;9.162;2022-08-19T10:07:32;21.40;99.90
25200;DHT22;33094;48.782;9.162;2022-08-19T10:09:57;21.40;99.90
25200;DHT22;33094;48.782;9.162;2022-08-19T10:12:23;21.50;99.90
25200;DHT22;33094;48.782;9.162;2022-08-19T10:14:49;21.50;99.90
25200;DHT22;33094;48.782;9.162;2022-08-19T10:17:16;21.60;99.90
25200;DHT22;33094;48.782;9.162;2022-08-19T10:19:42;21.70;99.90
25200;DHT22;33094;48.782;9.162;2022-08-19T10:22:08;21.70;99.90
25200;DHT22;33094;48.782;9.162;2022-08-19T10:24:34;23.40;99.90
25200;DHT22;33094;48.782;9.162;2022-08-19T10:27:00;21.70;99.90
25200;DHT22;33094;48.782;9.162;2022-08-19T10:29:28;21.60;99.90
25200;DHT22;33094;48.782;9.162;2022-08-19T10:31:54;21.70;99.90
25200;DHT22;33094;48.782;9.162;2022-08-19T10:34:21;21.70;99.90
25200;DHT22;33094;48.782;9.162;2022-08-19T10:36:46;21.60;99.90
25200;DHT22;33094;48.782;9.162;2022-08-19T10:39:12;20.30;99.90
25200;DHT22;33094;48.782;9.162;2022-08-19T10:41:38;21.70;99.90
25200;DHT22;33094;48.782;9.162;2022-08-19T10:44:05;21.80;99.90
25200;DHT22;33094;48.782;9.162;2022-08-19T10:46:32;21.80;99.90
25200;DHT22;33094;48.782;9.162;2022-08-19T10:48:58;21.90;99.90
25200;DHT22;33094;48.782;9.162;2022-08-19T10:51:24;22.10;99.90
25200;DHT22;33094;48.782;9.162;2022-08-19T10:54:08;22.20;99.90
25200;DHT22;33094;48.782;9.162;2022-08-19T10:56:34;22.20;99.90
25200;DHT22;33094;48.782;9.162;2022-08-19T11:01:44;22.10;99.90
25200;DHT22;33094;48.782;9.162;2022-08-19T11:04:10;22.10;99.90
25200;DHT22;33094;48.782;9.162;2022-08-19T11:06:36;25.50;99.90
25200;DHT22;33094;48.782;9.162;2022-08-19T11:09:04;22.00;99.90
25200;DHT22;33094;48.782;9.162;2022-08-19T11:11:30;22.00;99.90
25200;DHT22;33094;48.782;9.162;2022-08-19T11:13:57;22.10;99.90
25200;DHT22;33094;48.782;9.162;2022-08-19T11:16:24;22.10;99.90
25200;DHT22;33094;48.782;9.162;2022-08-19T11:18:51;22.20;99.90
25200;DHT22;33094;48.782;9.162;2022-08-19T11:21:22;22.30;99.90
25200;DHT22;33094;48.782;9.162;2022-08-19T11:23:48;22.40;99.80
25200;DHT22;33094;48.782;9.162;2022-08-19T11:26:15;22.50;99.40
25200;DHT22;33094;48.782;9.162;2022-08-19T11:28:41;22.60;99.20
25200;DHT22;33094;48.782;9.162;2022-08-19T11:31:10;22.60;99.20
25200;DHT22;33094;48.782;9.162;2022-08-19T11:33:36;22.60;98.90
25200;DHT22;33094;48.782;9.162;2022-08-19T11:36:02;22.70;99.10
25200;DHT22;33094;48.782;9.162;2022-08-19T11:38:28;22.90;98.70
25200;DHT22;33094;48.782;9.162;2022-08-19T11:40:58;22.90;98.40
25200;DHT22;33094;48.782;9.162;2022-08-19T11:43:23;22.90;98.40
25200;DHT22;33094;48.782;9.162;2022-08-19T11:45:49;22.90;98.70
25200;DHT22;33094;48.782;9.162;2022-08-19T11:48:15;22.90;98.50
25200;DHT22;33094;48.782;9.162;2022-08-19T11:50:40;23.00;98.40
25200;DHT22;33094;48.782;9.162;2022-08-19T11:53:07;22.90;98.20
25200;DHT22;33094;48.782;9.162;2022-08-19T11:55:36;22.90;98.10
25200;DHT22;33094;48.782;9.162;2022-08-19T11:58:01;23.00;97.80
25200;DHT22;33094;48.782;9.162;2022-08-19T12:00:27;23.00;97.90
25200;DHT22;33094;48.782;9.162;2022-08-19T12:02:52;23.00;98.00
25200;DHT22;33094;48.782;9.162;2022-08-19T12:05:19;23.10;97.60
25200;DHT22;33094;48.782;9.162;2022-08-19T12:07:45;23.10;97.60
25200;DHT22;33094;48.782;9.162;2022-08-19T12:10:11;23.10;97.60
25200;DHT22;33094;48.782;9.162;2022-08-19T12:12:36;23.10;97.70
25200;DHT22;33094;48.782;9.162;2022-08-19T12:15:05;23.10;97.60
25200;DHT22;33094;48.782;9.162;2022-08-19T12:17:31;23.00;97.60
25200;DHT22;33094;48.782;9.162;2022-08-19T12:19:56;23.00;97.70
25200;DHT22;33094;48.782;9.162;2022-08-19T12:22:22;22.60;99.60
25200;DHT22;33094;48.782;9.162;2022-08-19T12:24:48;22.40;99.90
25200;DHT22;33094;48.782;9.162;2022-08-19T12:27:16;22.40;99.90
25200;DHT22;33094;48.782;9.162;2022-08-19T12:29:41;22.40;99.90
25200;DHT22;33094;48.782;9.162;2022-08-19T12:32:07;22.40;99.90
25200;DHT22;33094;48.782;9.162;2022-08-19T12:34:33;22.30;99.90
25200;DHT22;33094;48.782;9.162;2022-08-19T12:37:00;22.40;99.90
25200;DHT22;33094;48.782;9.162;2022-08-19T12:39:26;22.30;99.90
25200;DHT22;33094;48.782;9.162;2022-08-19T12:41:51;22.30;99.90
25200;DHT22;33094;48.782;9.162;2022-08-19T12:44:17;22.30;99.90
25200;DHT22;33094;48.782;9.162;2022-08-19T12:46:43;24.20;99.90
25200;DHT22;33094;48.782;9.162;2022-08-19T12:49:08;22.40;99.90
25200;DHT22;33094;48.782;9.162;2022-08-19T12:51:34;22.40;99.90
25200;DHT22;33094;48.782;9.162;2022-08-19T12:53:59;22.40;99.90
25200;DHT22;33094;48.782;9.162;2022-08-19T12:56:26;22.50;99.90
25200;DHT22;33094;48.782;9.162;2022-08-19T12:58:52;22.60;99.90
25200;DHT22;33094;48.782;9.162;2022-08-19T13:01:18;22.70;99.90
25200;DHT22;33094;48.782;9.162;2022-08-19T13:03:45;23.00;99.80
25200;DHT22;33094;48.782;9.162;2022-08-19T13:06:10;24.30;99.80
25200;DHT22;33094;48.782;9.162;2022-08-19T13:08:36;23.00;99.60
25200;DHT22;33094;48.782;9.162;2022-08-19T13:11:13;22.90;99.90
25200;DHT22;33094;48.782;9.162;2022-08-19T13:13:39;22.70;99.90
25200;DHT22;33094;48.782;9.162;2022-08-19T13:16:06;22.60;99.90
25200;DHT22;33094;48.782;9.162;2022-08-19T13:18:32;22.60;99.90
25200;DHT22;33094;48.782;9.162;2022-08-19T13:21:01;22.50;99.90
25200;DHT22;33094;48.782;9.162;2022-08-19T13:23:28;22.40;99.90
25200;DHT22;33094;48.782;9.162;2022-08-19T13:26:00;22.00;99.90
25200;DHT22;33094;48.782;9.162;2022-08-19T13:28:27;21.90;99.90
25200;DHT22;33094;48.782;9.162;2022-08-19T13:31:20;21.70;99.90
25200;DHT22;33094;48.782;9.162;2022-08-19T13:34:05;18.80;99.90
25200;DHT22;33094;48.782;9.162;2022-08-19T13:36:33;21.50;99.90
25200;DHT22;33094;48.782;9.162;2022-08-19T13:38:59;21.50;99.90
25200;DHT22;33094;48.782;9.162;2022-08-19T13:41:25;23.30;99.90
25200;DHT22;33094;48.782;9.162;2022-08-19T13:43:51;21.70;99.90
25200;DHT22;33094;48.782;9.162;2022-08-19T13:46:16;21.60;99.90
25200;DHT22;33094;48.782;9.162;2022-08-19T13:48:42;21.50;99.90
25200;DHT22;33094;48.782;9.162;2022-08-19T13:51:07;21.50;99.90
25200;DHT22;33094;48.782;9.162;2022-08-19T13:53:37;21.50;99.90
25200;DHT22;33094;48.782;9.162;2022-08-19T13:56:06;21.50;99.90
25200;DHT22;33094;48.782;9.162;2022-08-19T13:58:32;21.20;99.90
25200;DHT22;33094;48.782;9.162;2022-08-19T14:00:58;20.90;99.90
25200;DHT22;33094;48.782;9.162;2022-08-19T14:03:24;20.60;99.90
25200;DHT22;33094;48.782;9.162;2022-08-19T14:05:50;20.70;99.90
25200;DHT22;33094;48.782;9.162;2022-08-19T14:08:16;20.80;99.90
25200;DHT22;33094;48.782;9.162;2022-08-19T14:10:41;20.80;99.90
25200;DHT22;33094;48.782;9.162;2022-08-19T14:13:09;20.70;99.90
25200;DHT22;33094;48.782;9.162;2022-08-19T14:15:34;20.90;99.90
25200;DHT22;33094;48.782;9.162;2022-08-19T14:18:00;20.90;99.90
25200;DHT22;33094;48.782;9.162;2022-08-19T14:20:26;20.90;99.90
25200;DHT22;33094;48.782;9.162;2022-08-19T14:22:52;20.90;99.90
25200;DHT22;33094;48.782;9.162;2022-08-19T14:25:19;21.10;99.90
25200;DHT22;33094;48.782;9.162;2022-08-19T14:27:45;21.20;99.90
25200;DHT22;33094;48.782;9.162;2022-08-19T14:30:12;21.00;99.90
25200;DHT22;33094;48.782;9.162;2022-08-19T14:32:38;21.20;99.90
25200;DHT22;33094;48.782;9.162;2022-08-19T14:35:04;21.30;99.90
25200;DHT22;33094;48.782;9.162;2022-08-19T14:37:30;21.30;99.90
25200;DHT22;33094;48.782;9.162;2022-08-19T14:39:55;21.20;99.90
25200;DHT22;33094;48.782;9.162;2022-08-19T14:42:21;21.40;99.90
25200;DHT22;33094;48.782;9.162;2022-08-19T14:44:46;21.50;99.90
25200;DHT22;33094;48.782;9.162;2022-08-19T14:47:12;21.60;99.90
25200;DHT22;33094;48.782;9.162;2022-08-19T14:49:37;21.70;99.90
25200;DHT22;33094;48.782;9.162;2022-08-19T14:52:04;21.50;99.90
25200;DHT22;33094;48.782;9.162;2022-08-19T14:54:30;21.40;99.90
25200;DHT22;33094;48.782;9.162;2022-08-19T14:56:55;22.20;99.90
25200;DHT22;33094;48.782;9.162;2022-08-19T14:59:21;21.40;99.90
25200;DHT22;33094;48.782;9.162;2022-08-19T15:01:46;21.50;99.90
25200;DHT22;33094;48.782;9.162;2022-08-19T15:04:12;21.90;99.90
25200;DHT22;33094;48.782;9.162;2022-08-19T15:06:37;21.50;99.90
25200;DHT22;33094;48.782;9.162;2022-08-19T15:09:03;21.70;99.90
25200;DHT22;33094;48.782;9.162;2022-08-19T15:11:28;21.80;99.90
25200;DHT22;33094;48.782;9.162;2022-08-19T15:13:55;22.00;99.90
25200;DHT22;33094;48.782;9.162;2022-08-19T15:16:21;22.10;99.90
25200;DHT22;33094;48.782;9.162;2022-08-19T15:18:48;22.30;99.90
25200;DHT22;33094;48.782;9.162;2022-08-19T15:21:14;25.80;99.90
25200;DHT22;33094;48.782;9.162;2022-08-19T15:23:46;22.40;99.90
25200;DHT22;33094;48.782;9.162;2022-08-19T15:26:13;22.70;99.90
25200;DHT22;33094;48.782;9.162;2022-08-19T15:28:39;22.80;99.90
25200;DHT22;33094;48.782;9.162;2022-08-19T15:31:05;22.80;99.90
25200;DHT22;33094;48.782;9.162;2022-08-19T15:33:31;22.90;99.90
25200;DHT22;33094;48.782;9.162;2022-08-19T15:35:57;22.90;99.90
25200;DHT22;33094;48.782;9.162;2022-08-19T15:38:23;22.80;99.90